sensor_id;sensor_type;location;lat;lon;timestamp;pressure;altitude;pressure_sealevel;temperature;humidity
57990;BME280;58373;51.824;5.564;2023-09-12T00:00:42;101202.50;;;20.01;91.01
57990;BME280;58373;51.824;5.564;2023-09-12T00:03:08;101199.06;;;20.00;91.44
57990;BME280;58373;51.824;5.564;2023-09-12T00:05:33;101212.22;;;20.00;91.33
57990;BME280;58373;51.824;5.564;2023-09-12T00:07:58;101203.69;;;19.98;91.30
57990;BME280;58373;51.824;5.564;2023-09-12T00:10:23;101207.31;;;19.97;91.50
57990;BME280;58373;51.824;5.564;2023-09-12T00:12:48;101215.41;;;19.96;91.38
57990;BME280;58373;51.824;5.564;2023-09-12T00:15:14;101218.19;;;19.94;91.37
57990;BME280;58373;51.824;5.564;2023-09-12T00:17:39;101217.56;;;19.92;91.38
57990;BME280;58373;51.824;5.564;2023-09-12T00:20:04;101214.00;;;19.85;91.29
57990;BME280;58373;51.824;5.564;2023-09-12T00:22:31;101221.63;;;19.80;91.67
57990;BME280;58373;51.824;5.564;2023-09-12T00:24:56;101222.31;;;19.74;91.83
57990;BME280;58373;51.824;5.564;2023-09-12T00:27:22;101223.66;;;19.70;92.14
57990;BME280;58373;51.824;5.564;2023-09-12T00:29:47;101221.03;;;19.70;92.31
57990;BME280;58373;51.824;5.564;2023-09-12T00:32:12;101223.03;;;19.68;92.50
57990;BME280;58373;51.824;5.564;2023-09-12T00:34:37;101230.25;;;19.66;92.53
57990;BME280;58373;51.824;5.564;2023-09-12T00:37:02;101230.25;;;19.66;93.01
57990;BME280;58373;51.824;5.564;2023-09-12T00:39:28;101226.97;;;19.63;92.76
57990;BME280;58373;51.824;5.564;2023-09-12T00:41:53;101233.88;;;19.65;92.96
57990;BME280;58373;51.824;5.564;2023-09-12T00:44:18;101240.78;;;19.66;93.25
57990;BME280;58373;51.824;5.564;2023-09-12T00:46:43;101248.97;;;19.71;93.42
57990;BME280;58373;51.824;5.564;2023-09-12T00:49:09;101248.63;;;19.74;93.38
57990;BME280;58373;51.824;5.564;2023-09-12T00:51:35;101244.53;;;19.71;93.52
57990;BME280;58373;51.824;5.564;2023-09-12T00:54:01;101241.25;;;19.69;93.62
57990;BME280;58373;51.824;5.564;2023-09-12T00:56:26;101244.06;;;19.68;94.05
57990;BME280;58373;51.824;5.564;2023-09-12T00:58:51;101237.50;;;19.63;93.89
57990;BME280;58373;51.824;5.564;2023-09-12T01:01:18;101225.00;;;19.66;93.88
57990;BME280;58373;51.824;5.564;2023-09-12T01:03:43;101231.88;;;19.67;93.98
57990;BME280;58373;51.824;5.564;2023-09-12T01:06:08;101225.47;;;19.69;94.13
57990;BME280;58373;51.824;5.564;2023-09-12T01:08:34;101208.19;;;19.67;93.85
57990;BME280;58373;51.824;5.564;2023-09-12T01:11:02;101215.66;;;19.63;93.95
57990;BME280;58373;51.824;5.564;2023-09-12T01:13:27;101217.13;;;19.57;93.94
57990;BME280;58373;51.824;5.564;2023-09-12T01:15:53;101204.00;;;19.49;94.14
57990;BME280;58373;51.824;5.564;2023-09-12T01:18:18;101207.19;;;19.45;94.31
57990;BME280;58373;51.824;5.564;2023-09-12T01:20:49;101204.72;;;19.43;94.40
57990;BME280;58373;51.824;5.564;2023-09-12T01:28:40;101183.09;;;19.33;94.28
57990;BME280;58373;51.824;5.564;2023-09-12T01:31:07;101191.13;;;19.31;94.01
57990;BME280;58373;51.824;5.564;2023-09-12T01:33:33;101187.88;;;19.29;94.20
57990;BME280;58373;51.824;5.564;2023-09-12T01:35:58;101186.56;;;19.25;94.15
57990;BME280;58373;51.824;5.564;2023-09-12T01:38:23;101190.38;;;19.23;94.03
57990;BME280;58373;51.824;5.564;2023-09-12T01:40:49;101201.59;;;19.17;93.95
57990;BME280;58373;51.824;5.564;2023-09-12T01:43:16;101194.38;;;19.10;94.14
57990;BME280;58373;51.824;5.564;2023-09-12T01:45:41;101196.72;;;19.05;94.26
57990;BME280;58373;51.824;5.564;2023-09-12T01:48:07;101200.66;;;19.01;94.57
57990;BME280;58373;51.824;5.564;2023-09-12T01:50:33;101201.34;;;18.95;94.79
57990;BME280;58373;51.824;5.564;2023-09-12T01:52:59;101194.78;;;18.91;95.04
57990;BME280;58373;51.824;5.564;2023-09-12T01:55:25;101198.41;;;18.90;95.18
57990;BME280;58373;51.824;5.564;2023-09-12T01:57:51;101200.41;;;18.88;95.39
57990;BME280;58373;51.824;5.564;2023-09-12T02:00:17;101198.75;;;18.87;95.43
57990;BME280;58373;51.824;5.564;2023-09-12T02:02:42;101200.53;;;18.87;95.55
57990;BME280;58373;51.824;5.564;2023-09-12T02:05:10;101202.34;;;18.86;95.71
57990;BME280;58373;51.824;5.564;2023-09-12T02:07:37;101200.53;;;18.87;95.80
57990;BME280;58373;51.824;5.564;2023-09-12T02:10:03;101202.34;;;18.86;95.89
57990;BME280;58373;51.824;5.564;2023-09-12T02:12:29;101200.25;;;18.81;95.95
57990;BME280;58373;51.824;5.564;2023-09-12T02:14:54;101199.44;;;18.81;96.11
57990;BME280;58373;51.824;5.564;2023-09-12T02:17:20;101185.63;;;18.79;96.20
57990;BME280;58373;51.824;5.564;2023-09-12T02:19:46;101183.00;;;18.79;96.53
57990;BME280;58373;51.824;5.564;2023-09-12T02:22:12;101189.25;;;18.78;96.47
57990;BME280;58373;51.824;5.564;2023-09-12T02:24:37;101193.50;;;18.79;96.56
57990;BME280;58373;51.824;5.564;2023-09-12T02:27:02;101195.97;;;18.80;96.68
57990;BME280;58373;51.824;5.564;2023-09-12T02:29:27;101198.59;;;18.80;96.74
57990;BME280;58373;51.824;5.564;2023-09-12T02:31:53;101208.28;;;18.80;96.84
57990;BME280;58373;51.824;5.564;2023-09-12T02:34:18;101196.16;;;18.79;96.96
57990;BME280;58373;51.824;5.564;2023-09-12T02:36:43;101202.22;;;18.79;97.09
57990;BME280;58373;51.824;5.564;2023-09-12T02:39:08;101202.41;;;18.78;97.06
57990;BME280;58373;51.824;5.564;2023-09-12T02:41:33;101200.41;;;18.80;97.11
57990;BME280;58373;51.824;5.564;2023-09-12T02:43:59;101204.34;;;18.84;97.17
57990;BME280;58373;51.824;5.564;2023-09-12T02:46:24;101201.53;;;18.86;97.08
57990;BME280;58373;51.824;5.564;2023-09-12T02:48:49;101200.72;;;18.85;97.16
57990;BME280;58373;51.824;5.564;2023-09-12T02:51:14;101201.06;;;18.82;97.34
57990;BME280;58373;51.824;5.564;2023-09-12T02:53:40;101201.41;;;18.79;97.43
57990;BME280;58373;51.824;5.564;2023-09-12T02:56:05;101210.47;;;18.76;97.34
57990;BME280;58373;51.824;5.564;2023-09-12T02:58:30;101207.00;;;18.76;97.41
57990;BME280;58373;51.824;5.564;2023-09-12T03:00:55;101207.00;;;18.76;97.35
57990;BME280;58373;51.824;5.564;2023-09-12T03:03:20;101205.03;;;18.78;97.59
57990;BME280;58373;51.824;5.564;2023-09-12T03:05:46;101201.06;;;18.82;97.47
57990;BME280;58373;51.824;5.564;2023-09-12T03:08:11;101202.34;;;18.86;97.48
57990;BME280;58373;51.824;5.564;2023-09-12T03:10:36;101204.97;;;18.86;97.57
57990;BME280;58373;51.824;5.564;2023-09-12T03:13:02;101204.34;;;18.84;97.48
57990;BME280;58373;51.824;5.564;2023-09-12T03:15:27;101191.84;;;18.86;97.67
57990;BME280;58373;51.824;5.564;2023-09-12T03:17:52;101199.72;;;18.86;97.82
57990;BME280;58373;51.824;5.564;2023-09-12T03:20:17;101195.31;;;18.78;97.93
57990;BME280;58373;51.824;5.564;2023-09-12T03:22:43;101198.63;;;18.72;97.86
57990;BME280;58373;51.824;5.564;2023-09-12T03:25:08;101195.50;;;18.69;98.01
57990;BME280;58373;51.824;5.564;2023-09-12T03:27:33;101193.22;;;18.66;98.06
57990;BME280;58373;51.824;5.564;2023-09-12T03:29:58;101187.63;;;18.61;98.10
57990;BME280;58373;51.824;5.564;2023-09-12T03:32:24;101187.97;;;18.57;98.28
57990;BME280;58373;51.824;5.564;2023-09-12T03:34:49;101192.56;;;18.55;98.23
57990;BME280;58373;51.824;5.564;2023-09-12T03:37:14;101189.13;;;18.55;98.30
57990;BME280;58373;51.824;5.564;2023-09-12T03:39:39;101197.19;;;18.53;98.34
57990;BME280;58373;51.824;5.564;2023-09-12T03:42:04;101197.50;;;18.50;98.51
57990;BME280;58373;51.824;5.564;2023-09-12T03:44:30;101186.53;;;18.47;98.56
57990;BME280;58373;51.824;5.564;2023-09-12T03:46:55;101189.97;;;18.39;98.48
57990;BME280;58373;51.824;5.564;2023-09-12T03:49:20;101186.88;;;18.36;98.50
57990;BME280;58373;51.824;5.564;2023-09-12T03:51:45;101184.41;;;18.34;98.59
57990;BME280;58373;51.824;5.564;2023-09-12T03:54:10;101176.88;;;18.31;98.44
57990;BME280;58373;51.824;5.564;2023-09-12T03:56:36;101178.84;;;18.29;98.22
57990;BME280;58373;51.824;5.564;2023-09-12T03:59:01;101188.38;;;18.22;97.97
57990;BME280;58373;51.824;5.564;2023-09-12T04:01:26;101184.59;;;18.16;98.08
57990;BME280;58373;51.824;5.564;2023-09-12T04:03:51;101180.50;;;18.14;98.38
57990;BME280;58373;51.824;5.564;2023-09-12T04:06:17;101177.22;;;18.12;98.26
57990;BME280;58373;51.824;5.564;2023-09-12T04:08:42;101173.94;;;18.10;98.23
57990;BME280;58373;51.824;5.564;2023-09-12T04:11:07;101173.31;;;18.08;98.24
57990;BME280;58373;51.824;5.564;2023-09-12T04:13:32;101172.31;;;18.09;98.16
57990;BME280;58373;51.824;5.564;2023-09-12T04:15:57;101167.06;;;18.09;98.25
57990;BME280;58373;51.824;5.564;2023-09-12T04:18:23;101167.88;;;18.09;98.20
57990;BME280;58373;51.824;5.564;2023-09-12T04:20:48;101171.97;;;18.12;98.16
57990;BME280;58373;51.824;5.564;2023-09-12T04:23:13;101162.47;;;18.11;98.09
57990;BME280;58373;51.824;5.564;2023-09-12T04:25:41;101173.94;;;18.10;98.29
57990;BME280;58373;51.824;5.564;2023-09-12T04:28:06;101166.41;;;18.07;98.63
57990;BME280;58373;51.824;5.564;2023-09-12T04:30:31;101174.59;;;18.12;98.87
57990;BME280;58373;51.824;5.564;2023-09-12T04:32:57;101173.28;;;18.16;99.09
57990;BME280;58373;51.824;5.564;2023-09-12T04:35:22;101182.31;;;18.21;99.14
57990;BME280;58373;51.824;5.564;2023-09-12T04:37:47;101179.19;;;18.26;99.35
57990;BME280;58373;51.824;5.564;2023-09-12T04:40:12;101182.13;;;18.31;99.27
57990;BME280;58373;51.824;5.564;2023-09-12T04:42:38;101182.13;;;18.31;99.22
57990;BME280;58373;51.824;5.564;2023-09-12T04:45:03;101184.44;;;18.26;99.33
57990;BME280;58373;51.824;5.564;2023-09-12T04:47:28;101183.78;;;18.24;99.38
57990;BME280;58373;51.824;5.564;2023-09-12T04:49:53;101184.75;;;18.23;99.51
57990;BME280;58373;51.824;5.564;2023-09-12T04:52:19;101186.41;;;18.24;99.74
57990;BME280;58373;51.824;5.564;2023-09-12T04:54:44;101188.38;;;18.22;99.79
57990;BME280;58373;51.824;5.564;2023-09-12T04:57:09;101177.22;;;18.20;99.90
57990;BME280;58373;51.824;5.564;2023-09-12T04:59:34;101181.81;;;18.18;100.00
57990;BME280;58373;51.824;5.564;2023-09-12T05:01:59;101186.22;;;18.17;100.00
57990;BME280;58373;51.824;5.564;2023-09-12T05:04:25;101182.97;;;18.15;100.00
57990;BME280;58373;51.824;5.564;2023-09-12T05:06:50;101183.78;;;18.16;100.00
57990;BME280;58373;51.824;5.564;2023-09-12T05:09:15;101179.34;;;18.16;100.00
57990;BME280;58373;51.824;5.564;2023-09-12T05:11:41;101182.16;;;18.15;100.00
57990;BME280;58373;51.824;5.564;2023-09-12T05:14:06;101174.91;;;18.17;100.00
57990;BME280;58373;51.824;5.564;2023-09-12T05:16:31;101191.47;;;18.17;100.00
57990;BME280;58373;51.824;5.564;2023-09-12T05:18:56;101196.72;;;18.17;100.00
57990;BME280;58373;51.824;5.564;2023-09-12T05:21:22;101202.16;;;18.24;100.00
57990;BME280;58373;51.824;5.564;2023-09-12T05:23:47;101195.94;;;18.25;100.00
57990;BME280;58373;51.824;5.564;2023-09-12T05:26:12;101193.63;;;18.22;100.00
57990;BME280;58373;51.824;5.564;2023-09-12T05:28:37;101194.78;;;18.19;100.00
57990;BME280;58373;51.824;5.564;2023-09-12T05:31:03;101200.50;;;18.23;100.00
57990;BME280;58373;51.824;5.564;2023-09-12T05:33:28;101196.91;;;18.24;100.00
57990;BME280;58373;51.824;5.564;2023-09-12T05:35:53;101193.94;;;18.27;100.00
57990;BME280;58373;51.824;5.564;2023-09-12T05:38:18;101201.81;;;18.27;100.00
57990;BME280;58373;51.824;5.564;2023-09-12T05:40:44;101204.78;;;18.24;100.00
57990;BME280;58373;51.824;5.564;2023-09-12T05:43:09;101204.13;;;18.22;100.00
57990;BME280;58373;51.824;5.564;2023-09-12T05:45:34;101190.81;;;18.23;100.00
57990;BME280;58373;51.824;5.564;2023-09-12T05:47:59;101190.34;;;18.20;100.00
57990;BME280;58373;51.824;5.564;2023-09-12T05:50:24;101189.53;;;18.19;100.00
57990;BME280;58373;51.824;5.564;2023-09-12T05:52:50;101184.44;;;18.18;100.00
57990;BME280;58373;51.824;5.564;2023-09-12T05:55:16;101189.53;;;18.19;100.00
57990;BME280;58373;51.824;5.564;2023-09-12T05:57:41;101200.03;;;18.19;100.00
57990;BME280;58373;51.824;5.564;2023-09-12T06:00:06;101203.78;;;18.17;100.00
57990;BME280;58373;51.824;5.564;2023-09-12T06:02:36;101203.78;;;18.17;100.00
57990;BME280;58373;51.824;5.564;2023-09-12T06:05:01;101207.25;;;18.17;100.00
57990;BME280;58373;51.824;5.564;2023-09-12T06:07:27;101204.78;;;18.16;100.00
57990;BME280;58373;51.824;5.564;2023-09-12T06:09:53;101208.06;;;18.18;100.00
57990;BME280;58373;51.824;5.564;2023-09-12T06:12:18;101202.81;;;18.18;100.00
57990;BME280;58373;51.824;5.564;2023-09-12T06:14:43;101206.09;;;18.20;100.00
57990;BME280;58373;51.824;5.564;2023-09-12T06:17:08;101212.81;;;18.22;100.00
57990;BME280;58373;51.824;5.564;2023-09-12T06:19:34;101210.03;;;18.24;100.00
57990;BME280;58373;51.824;5.564;2023-09-12T06:21:59;101206.44;;;18.25;100.00
57990;BME280;58373;51.824;5.564;2023-09-12T06:24:24;101213.31;;;18.26;100.00
57990;BME280;58373;51.824;5.564;2023-09-12T06:26:49;101219.22;;;18.28;100.00
57990;BME280;58373;51.824;5.564;2023-09-12T06:29:15;101221.19;;;18.26;100.00
57990;BME280;58373;51.824;5.564;2023-09-12T06:31:40;101224.81;;;18.25;100.00
57990;BME280;58373;51.824;5.564;2023-09-12T06:34:06;101228.06;;;18.27;100.00
57990;BME280;58373;51.824;5.564;2023-09-12T06:36:31;101224.47;;;18.28;100.00
57990;BME280;58373;51.824;5.564;2023-09-12T06:38:57;101234.97;;;18.28;100.00
57990;BME280;58373;51.824;5.564;2023-09-12T06:41:22;101223.47;;;18.29;100.00
57990;BME280;58373;51.824;5.564;2023-09-12T06:43:47;101227.41;;;18.33;100.00
57990;BME280;58373;51.824;5.564;2023-09-12T06:46:13;101224.16;;;18.31;100.00
57990;BME280;58373;51.824;5.564;2023-09-12T06:48:38;101226.59;;;18.33;100.00
57990;BME280;58373;51.824;5.564;2023-09-12T06:51:08;101227.41;;;18.33;100.00
57990;BME280;58373;51.824;5.564;2023-09-12T06:53:33;101228.41;;;18.32;100.00
57990;BME280;58373;51.824;5.564;2023-09-12T06:55:58;101219.72;;;18.31;100.00
57990;BME280;58373;51.824;5.564;2023-09-12T06:58:24;101221.84;;;18.36;100.00
57990;BME280;58373;51.824;5.564;2023-09-12T07:00:49;101222.31;;;18.40;100.00
57990;BME280;58373;51.824;5.564;2023-09-12T07:03:14;101216.91;;;18.41;100.00
57990;BME280;58373;51.824;5.564;2023-09-12T07:05:41;101205.41;;;18.42;100.00
57990;BME280;58373;51.824;5.564;2023-09-12T07:08:06;101212.31;;;18.43;100.00
57990;BME280;58373;51.824;5.564;2023-09-12T07:10:31;101203.44;;;18.44;100.00
57990;BME280;58373;51.824;5.564;2023-09-12T07:12:56;101200.63;;;18.46;100.00
57990;BME280;58373;51.824;5.564;2023-09-12T07:15:22;101197.84;;;18.47;100.00
57990;BME280;58373;51.824;5.564;2023-09-12T07:17:47;101207.38;;;18.48;100.00
57990;BME280;58373;51.824;5.564;2023-09-12T07:20:12;101216.88;;;18.49;100.00
57990;BME280;58373;51.824;5.564;2023-09-12T07:22:38;101207.69;;;18.53;100.00
57990;BME280;58373;51.824;5.564;2023-09-12T07:25:04;101221.16;;;18.58;100.00
57990;BME280;58373;51.824;5.564;2023-09-12T07:27:30;101227.38;;;18.66;100.00
57990;BME280;58373;51.824;5.564;2023-09-12T07:29:55;101225.09;;;18.71;100.00
57990;BME280;58373;51.824;5.564;2023-09-12T07:32:20;101238.53;;;18.76;100.00
57990;BME280;58373;51.824;5.564;2023-09-12T07:34:46;101240.19;;;18.77;100.00
57990;BME280;58373;51.824;5.564;2023-09-12T07:37:13;101241.81;;;18.78;100.00
57990;BME280;58373;51.824;5.564;2023-09-12T07:39:38;101239.81;;;18.80;100.00
57990;BME280;58373;51.824;5.564;2023-09-12T07:42:04;101241.50;;;18.81;100.00
57990;BME280;58373;51.824;5.564;2023-09-12T07:44:29;101235.25;;;18.82;100.00
57990;BME280;58373;51.824;5.564;2023-09-12T07:46:54;101241.13;;;18.84;100.00
57990;BME280;58373;51.824;5.564;2023-09-12T07:49:19;101246.06;;;18.87;100.00
57990;BME280;58373;51.824;5.564;2023-09-12T07:51:45;101239.16;;;18.86;100.00
57990;BME280;58373;51.824;5.564;2023-09-12T07:54:10;101235.19;;;18.90;100.00
57990;BME280;58373;51.824;5.564;2023-09-12T07:56:35;101233.22;;;18.92;100.00
57990;BME280;58373;51.824;5.564;2023-09-12T07:59:00;101241.78;;;18.94;100.00
57990;BME280;58373;51.824;5.564;2023-09-12T08:01:25;101236.97;;;18.98;100.00
57990;BME280;58373;51.824;5.564;2023-09-12T08:03:52;101230.38;;;19.02;100.00
57990;BME280;58373;51.824;5.564;2023-09-12T08:06:17;101236.44;;;19.10;100.00
57990;BME280;58373;51.824;5.564;2023-09-12T08:08:42;101241.03;;;19.17;100.00
57990;BME280;58373;51.824;5.564;2023-09-12T08:11:08;101247.22;;;19.24;100.00
57990;BME280;58373;51.824;5.564;2023-09-12T08:13:33;101248.53;;;19.28;100.00
57990;BME280;58373;51.824;5.564;2023-09-12T08:15:58;101254.75;;;19.35;100.00
57990;BME280;58373;51.824;5.564;2023-09-12T08:18:28;101254.75;;;19.35;100.00
57990;BME280;58373;51.824;5.564;2023-09-12T08:20:54;101253.41;;;19.39;100.00
57990;BME280;58373;51.824;5.564;2023-09-12T08:23:19;101247.28;;;19.47;100.00
57990;BME280;58373;51.824;5.564;2023-09-12T08:25:44;101243.78;;;19.54;100.00
57990;BME280;58373;51.824;5.564;2023-09-12T08:28:09;101245.41;;;19.55;100.00
57990;BME280;58373;51.824;5.564;2023-09-12T08:30:35;101250.38;;;19.58;100.00
57990;BME280;58373;51.824;5.564;2023-09-12T08:33:00;101255.28;;;19.61;100.00
57990;BME280;58373;51.824;5.564;2023-09-12T08:35:28;101259.88;;;19.68;100.00
57990;BME280;58373;51.824;5.564;2023-09-12T08:37:53;101262.34;;;19.84;100.00
57990;BME280;58373;51.824;5.564;2023-09-12T08:40:18;101263.03;;;19.86;100.00
57990;BME280;58373;51.824;5.564;2023-09-12T08:42:44;101260.41;;;19.86;100.00
57990;BME280;58373;51.824;5.564;2023-09-12T08:45:13;101263.97;;;19.93;100.00
57990;BME280;58373;51.824;5.564;2023-09-12T08:47:40;101261.25;;;20.01;100.00
57990;BME280;58373;51.824;5.564;2023-09-12T08:50:07;101259.28;;;20.03;100.00
57990;BME280;58373;51.824;5.564;2023-09-12T08:52:32;101259.56;;;20.08;100.00
57990;BME280;58373;51.824;5.564;2023-09-12T08:54:57;101268.41;;;20.15;100.00
57990;BME280;58373;51.824;5.564;2023-09-12T08:57:23;101279.84;;;20.23;100.00
57990;BME280;58373;51.824;5.564;2023-09-12T08:59:49;101272.63;;;20.25;100.00
57990;BME280;58373;51.824;5.564;2023-09-12T09:02:15;101275.50;;;20.30;100.00
57990;BME280;58373;51.824;5.564;2023-09-12T09:04:40;101264.28;;;20.36;100.00
57990;BME280;58373;51.824;5.564;2023-09-12T09:07:06;101275.75;;;20.43;100.00
57990;BME280;58373;51.824;5.564;2023-09-12T09:09:32;101271.22;;;20.52;100.00
57990;BME280;58373;51.824;5.564;2023-09-12T09:11:58;101277.59;;;20.57;100.00
57990;BME280;58373;51.824;5.564;2023-09-12T09:14:23;101275.63;;;20.59;100.00
57990;BME280;58373;51.824;5.564;2023-09-12T09:16:49;101284.44;;;20.66;100.00
57990;BME280;58373;51.824;5.564;2023-09-12T09:19:14;101296.53;;;20.76;100.00
57990;BME280;58373;51.824;5.564;2023-09-12T09:21:41;101293.09;;;20.90;100.00
57990;BME280;58373;51.824;5.564;2023-09-12T09:24:07;101290.28;;;21.06;99.17
57990;BME280;58373;51.824;5.564;2023-09-12T09:26:43;101290.00;;;21.01;99.50
57990;BME280;58373;51.824;5.564;2023-09-12T09:29:10;101295.56;;;21.06;99.05
57990;BME280;58373;51.824;5.564;2023-09-12T09:31:35;101285.63;;;21.08;97.48
57990;BME280;58373;51.824;5.564;2023-09-12T09:34:04;101288.88;;;21.10;98.81
57990;BME280;58373;51.824;5.564;2023-09-12T09:36:34;101288.44;;;21.21;98.18
57990;BME280;58373;51.824;5.564;2023-09-12T09:39:00;101283.41;;;21.27;97.84
57990;BME280;58373;51.824;5.564;2023-09-12T09:41:29;101280.47;;;21.30;97.72
57990;BME280;58373;51.824;5.564;2023-09-12T09:43:55;101292.53;;;21.39;97.84
57990;BME280;58373;51.824;5.564;2023-09-12T09:46:20;101287.44;;;21.52;97.10
57990;BME280;58373;51.824;5.564;2023-09-12T09:48:49;101294.59;;;21.58;97.05
57990;BME280;58373;51.824;5.564;2023-09-12T09:51:14;101281.09;;;21.68;96.35
57990;BME280;58373;51.824;5.564;2023-09-12T09:53:39;101288.09;;;21.76;96.20
57990;BME280;58373;51.824;5.564;2023-09-12T09:56:11;101280.84;;;21.84;95.33
57990;BME280;58373;51.824;5.564;2023-09-12T09:58:41;101270.38;;;21.91;94.95
57990;BME280;58373;51.824;5.564;2023-09-12T10:01:07;101269.84;;;22.02;94.49
57990;BME280;58373;51.824;5.564;2023-09-12T10:03:34;101275.28;;;22.15;93.80
57990;BME280;58373;51.824;5.564;2023-09-12T10:06:00;101271.13;;;22.27;93.46
57990;BME280;58373;51.824;5.564;2023-09-12T10:08:29;101271.13;;;22.27;93.12
57990;BME280;58373;51.824;5.564;2023-09-12T10:10:56;101267.72;;;22.34;92.28
57990;BME280;58373;51.824;5.564;2023-09-12T10:13:21;101266.28;;;22.31;91.49
57990;BME280;58373;51.824;5.564;2023-09-12T10:15:51;101269.75;;;22.32;91.41
57990;BME280;58373;51.824;5.564;2023-09-12T10:18:18;101259.41;;;22.37;91.38
57990;BME280;58373;51.824;5.564;2023-09-12T10:20:45;101265.94;;;22.41;90.35
57990;BME280;58373;51.824;5.564;2023-09-12T10:23:14;101256.63;;;22.45;90.81
57990;BME280;58373;51.824;5.564;2023-09-12T10:25:42;101247.28;;;22.49;90.82
57990;BME280;58373;51.824;5.564;2023-09-12T10:28:08;101252.19;;;22.52;90.49
57990;BME280;58373;51.824;5.564;2023-09-12T10:30:34;101251.81;;;22.55;89.63
57990;BME280;58373;51.824;5.564;2023-09-12T10:33:00;101260.69;;;22.47;88.93
57990;BME280;58373;51.824;5.564;2023-09-12T10:35:27;101261.91;;;22.45;88.76
57990;BME280;58373;51.824;5.564;2023-09-12T10:37:52;101271.91;;;22.49;88.60
57990;BME280;58373;51.824;5.564;2023-09-12T10:40:19;101273.91;;;22.47;87.82
57990;BME280;58373;51.824;5.564;2023-09-12T10:42:44;101269.66;;;22.53;88.35
57990;BME280;58373;51.824;5.564;2023-09-12T10:45:10;101275.84;;;22.60;88.20
57990;BME280;58373;51.824;5.564;2023-09-12T10:47:36;101275.44;;;22.63;86.07
57990;BME280;58373;51.824;5.564;2023-09-12T10:50:02;101271.00;;;22.70;87.57
57990;BME280;58373;51.824;5.564;2023-09-12T10:52:28;101276.66;;;22.89;87.50
57990;BME280;58373;51.824;5.564;2023-09-12T10:54:53;101276.31;;;23.05;86.24
57990;BME280;58373;51.824;5.564;2023-09-12T10:57:18;101275.69;;;23.03;85.58
57990;BME280;58373;51.824;5.564;2023-09-12T11:04:52;101270.03;;;23.06;84.07
57990;BME280;58373;51.824;5.564;2023-09-12T11:07:30;101255.78;;;23.07;82.32
57990;BME280;58373;51.824;5.564;2023-09-12T11:12:52;101257.78;;;23.05;82.65
57990;BME280;58373;51.824;5.564;2023-09-12T11:15:18;101259.88;;;23.16;82.63
57990;BME280;58373;51.824;5.564;2023-09-12T11:17:44;101250.34;;;23.22;81.09
57990;BME280;58373;51.824;5.564;2023-09-12T11:20:10;101260.78;;;23.37;81.50
57990;BME280;58373;51.824;5.564;2023-09-12T11:22:40;101254.44;;;23.31;80.02
57990;BME280;58373;51.824;5.564;2023-09-12T11:30:21;101253.84;;;23.36;79.08
57990;BME280;58373;51.824;5.564;2023-09-12T11:32:47;101254.09;;;23.41;80.03
57990;BME280;58373;51.824;5.564;2023-09-12T11:35:13;101251.03;;;23.44;77.43
57990;BME280;58373;51.824;5.564;2023-09-12T11:37:38;101255.72;;;23.48;77.25
57990;BME280;58373;51.824;5.564;2023-09-12T11:40:23;101264.09;;;23.52;78.66
57990;BME280;58373;51.824;5.564;2023-09-12T11:42:48;101259.03;;;23.57;78.12
57990;BME280;58373;51.824;5.564;2023-09-12T11:45:18;101252.16;;;23.69;78.03
57990;BME280;58373;51.824;5.564;2023-09-12T11:47:44;101259.28;;;23.75;77.33
57990;BME280;58373;51.824;5.564;2023-09-12T11:53:10;101252.19;;;24.09;78.16
57990;BME280;58373;51.824;5.564;2023-09-12T11:55:37;101259.31;;;24.15;75.30
57990;BME280;58373;51.824;5.564;2023-09-12T11:58:03;101264.19;;;24.11;76.13
57990;BME280;58373;51.824;5.564;2023-09-12T12:00:28;101266.63;;;24.06;75.47
57990;BME280;58373;51.824;5.564;2023-09-12T12:02:54;101260.75;;;24.04;73.67
57990;BME280;58373;51.824;5.564;2023-09-12T12:05:19;101256.84;;;24.00;75.27
57990;BME280;58373;51.824;5.564;2023-09-12T12:07:45;101248.91;;;24.00;74.97
57990;BME280;58373;51.824;5.564;2023-09-12T12:10:12;101248.69;;;24.08;73.95
57990;BME280;58373;51.824;5.564;2023-09-12T12:12:38;101244.63;;;23.99;73.61
57990;BME280;58373;51.824;5.564;2023-09-12T12:15:03;101245.22;;;23.95;73.30
57990;BME280;58373;51.824;5.564;2023-09-12T12:17:28;101248.47;;;23.97;74.57
57990;BME280;58373;51.824;5.564;2023-09-12T12:19:54;101243.41;;;24.02;73.55
57990;BME280;58373;51.824;5.564;2023-09-12T12:22:19;101245.88;;;24.03;73.17
57990;BME280;58373;51.824;5.564;2023-09-12T12:24:45;101233.22;;;24.12;74.60
57990;BME280;58373;51.824;5.564;2023-09-12T12:27:10;101237.69;;;24.18;72.04
57990;BME280;58373;51.824;5.564;2023-09-12T12:29:36;101235.25;;;24.17;73.59
57990;BME280;58373;51.824;5.564;2023-09-12T12:32:02;101228.72;;;24.19;73.14
57990;BME280;58373;51.824;5.564;2023-09-12T12:34:28;101230.75;;;24.30;73.19
57990;BME280;58373;51.824;5.564;2023-09-12T12:36:54;101235.25;;;24.36;72.80
57990;BME280;58373;51.824;5.564;2023-09-12T12:39:20;101226.66;;;24.48;71.28
57990;BME280;58373;51.824;5.564;2023-09-12T12:41:45;101236.44;;;24.54;72.29
57990;BME280;58373;51.824;5.564;2023-09-12T12:44:11;101235.66;;;24.47;71.74
57990;BME280;58373;51.824;5.564;2023-09-12T12:46:47;101229.31;;;24.48;72.07
57990;BME280;58373;51.824;5.564;2023-09-12T12:49:14;101237.69;;;24.51;70.98
57990;BME280;58373;51.824;5.564;2023-09-12T12:51:39;101235.44;;;24.55;71.35
57990;BME280;58373;51.824;5.564;2023-09-12T12:54:07;101237.66;;;24.58;71.33
57990;BME280;58373;51.824;5.564;2023-09-12T12:56:32;101227.91;;;24.52;69.18
57990;BME280;58373;51.824;5.564;2023-09-12T12:58:58;101227.50;;;24.55;70.73